Saturday, September 22, 2018, 9:23 AM EDT
Back to Local

KFIT, Fitchburg, Fitchburg Municipal Airport

Location: Leominster, MA, United States Lat: 42.552
Local Time: 9:23 AM EDT (13:23 GMT) Lon: -71.756
Time Zone: US/Eastern Elev: 347 ft

Show me the last for .
Show Decoded

2018-09-22 08:52 METAR KFIT 221252Z AUTO 33012KT 10SM CLR 18/11 A3003 RMK AO2 SLP170 T01780111 =
2018-09-22 07:52 METAR KFIT 221152Z AUTO 30013G23KT 10SM CLR 18/11 A2999 RMK AO2 SLP155 60001
                 70001 T01780111 10211 20178 53041 =
2018-09-22 06:52 METAR KFIT 221052Z AUTO 28016G27KT 10SM CLR 19/10 A2994 RMK AO2 PK WND
                 27035/1026 SLP139 T01890100 =
2018-09-22 05:52 METAR KFIT 220952Z AUTO 28013G22KT 10SM CLR 21/16 A2990 RMK AO2 SLP123 T02060161
                 =
2018-09-22 04:52 METAR KFIT 220852Z AUTO 24006KT 10SM FEW017 FEW042 20/18 A2987 RMK AO2 SLP113
                 60001 T02000183 55002 =
2018-09-22 04:38 METAR KFIT 220838Z AUTO 24006KT 10SM SCT017 SCT023 BKN100 20/18 A2986 RMK AO2
                 T02000183 =
2018-09-22 04:22 METAR KFIT 220822Z AUTO 25008KT 10SM BKN017 BKN025 OVC095 21/18 A2986 RMK AO2
                 T02060183 =
2018-09-22 03:52 METAR KFIT 220752Z AUTO 00000KT 10SM SCT016 BKN060 OVC090 21/18 A2986 RMK AO2
                 RAE16 SLP110 P0000 T02060183 =
2018-09-22 02:52 METAR KFIT 220652Z AUTO 20014G19KT 10SM -RA FEW018 FEW070 SCT095 21/18 A2985 RMK
                 AO2 RAB0554 SLP108 P0001 T02060178 =
2018-09-22 02:18 METAR KFIT 220618Z AUTO 21010G21KT 10SM -RA SCT021 BKN110 21/18 A2986 RMK AO2
                 RAB0554 P0000 T02060178 =
2018-09-22 01:52 METAR KFIT 220552Z AUTO 21014G21KT 10SM OVC021 21/17 A2987 RMK AO2 PK WND
                 21028/0514 SLP114 T02110172 10211 20183 56023 =
2018-09-22 00:52 METAR KFIT 220452Z AUTO 21014G23KT 10SM OVC020 21/17 A2988 RMK AO2 SLP118
                 T02060167 402060144 =
2018-09-21 23:52 METAR KFIT 220352Z AUTO 21015G27KT 10SM OVC022 21/16 A2990 RMK AO2 PK WND
                 22027/0343 SLP126 T02060161 =
2018-09-21 22:52 METAR KFIT 220252Z AUTO 22008G17KT 10SM BKN020 OVC027 19/16 A2994 RMK AO2 SLP139
                 T01940161 57014 =
2018-09-21 21:52 METAR KFIT 220152Z AUTO 20012G20KT 10SM OVC020 19/16 A2996 RMK AO2 SLP143
                 T01940156 =
2018-09-21 20:52 METAR KFIT 220052Z AUTO 19010G17KT 10SM OVC020 18/15 A2997 RMK AO2 SLP147
                 T01830150 =
2018-09-21 20:08 METAR KFIT 220008Z AUTO 18008KT 10SM BKN024 OVC031 18/14 A2997 RMK AO2 T01830144
                 =
2018-09-21 19:52 METAR KFIT 212352Z AUTO 18010G17KT 10SM FEW022 OVC032 18/14 A2998 RMK AO2 SLP152
                 T01830144 10194 20178 58030 =
2018-09-21 19:22 METAR KFIT 212322Z AUTO 17010KT 10SM SCT024 OVC033 18/14 A2999 RMK AO2 T01780139
                 =
2018-09-21 18:52 METAR KFIT 212252Z AUTO 19007KT 10SM BKN026 OVC032 18/14 A3002 RMK AO2 SLP164
                 T01830139 =
2018-09-21 18:45 METAR KFIT 212245Z AUTO 17006KT 10SM BKN026 OVC032 18/14 A3002 RMK AO2 T01830139
                 =
2018-09-21 17:52 METAR KFIT 212152Z AUTO 18007KT 10SM SCT025 BKN035 OVC047 18/14 A3004 RMK AO2
                 SLP171 T01830139 =
2018-09-21 17:40 METAR KFIT 212140Z AUTO 17010G15KT 10SM SCT025 BKN036 OVC045 18/14 A3004 RMK AO2
                 T01830139 =
2018-09-21 16:52 METAR KFIT 212052Z AUTO 19009G15KT 10SM OVC026 19/14 A3007 RMK AO2 SLP183
                 T01890139 56027 =
2018-09-21 16:13 METAR KFIT 212013Z AUTO 18010KT 10SM OVC028 19/13 A3008 RMK AO2 T01890133 =
2018-09-21 15:52 METAR KFIT 211952Z AUTO 18008KT 10SM BKN030 BKN037 19/13 A3009 RMK AO2 SLP190
                 T01940133 =
2018-09-21 14:52 METAR KFIT 211852Z AUTO 20011KT 10SM SCT030 BKN039 OVC045 19/13 A3012 RMK AO2
                 SLP200 T01940133 =
2018-09-21 14:34 METAR KFIT 211834Z AUTO 19009KT 10SM SCT031 OVC039 19/13 A3013 RMK AO2 T01890133
                 =
2018-09-21 14:21 METAR KFIT 211821Z AUTO 20011KT 10SM BKN029 OVC037 19/13 A3014 RMK AO2 T01890133
                 =
2018-09-21 14:10 METAR KFIT 211810Z AUTO 18008G16KT 10SM OVC031 19/13 A3014 RMK AO2 T01890128 =
2018-09-21 14:02 METAR KFIT 211802Z AUTO 19008KT 10SM BKN029 OVC035 19/13 A3015 RMK AO2 T01890133
                 =
2018-09-21 13:52 METAR KFIT 211752Z AUTO 18009KT 10SM BKN030 OVC036 19/13 A3015 RMK AO2 SLP210
                 T01890133 10189 20144 58030 =
2018-09-21 12:52 METAR KFIT 211652Z AUTO 16012KT 10SM OVC028 18/12 A3019 RMK AO2 SLP222 T01830122
                 =
2018-09-21 12:08 METAR KFIT 211608Z AUTO 18008KT 10SM BKN028 OVC033 18/12 A3021 RMK AO2 T01830122
                 =
2018-09-21 11:52 METAR KFIT 211552Z AUTO 14012KT 10SM OVC033 18/12 A3022 RMK AO2 SLP233 T01830117
                 =
2018-09-21 10:52 METAR KFIT 211452Z AUTO 14011KT 10SM OVC035 18/12 A3024 RMK AO2 SLP241 T01780117
                 58021 =
2018-09-21 09:52 METAR KFIT 211352Z AUTO 16007KT 10SM OVC035 16/12 A3028 RMK AO2 SLP255 T01610117
                 =

Support USWX by starting your Amazon purchase here.